sensor_id;sensor_type;location;lat;lon;timestamp;temperature;humidity
47090;DHT22;32840;52.516;13.294;2022-12-18T00:02:32;-2.20;99.90
47090;DHT22;32840;52.516;13.294;2022-12-18T00:05:17;-2.30;99.90
47090;DHT22;32840;52.516;13.294;2022-12-18T00:08:02;-2.20;99.90
47090;DHT22;32840;52.516;13.294;2022-12-18T00:10:47;-2.10;99.90
47090;DHT22;32840;52.516;13.294;2022-12-18T00:13:32;-2.00;99.90
47090;DHT22;32840;52.516;13.294;2022-12-18T00:16:19;-2.00;99.90
47090;DHT22;32840;52.516;13.294;2022-12-18T00:19:05;-2.10;99.90
47090;DHT22;32840;52.516;13.294;2022-12-18T00:21:53;-2.20;99.90
47090;DHT22;32840;52.516;13.294;2022-12-18T00:24:38;-2.30;99.90
47090;DHT22;32840;52.516;13.294;2022-12-18T00:27:23;-2.30;99.90
47090;DHT22;32840;52.516;13.294;2022-12-18T00:30:10;-2.40;99.90
47090;DHT22;32840;52.516;13.294;2022-12-18T00:32:55;-2.50;99.90
47090;DHT22;32840;52.516;13.294;2022-12-18T00:35:40;-2.50;99.90
47090;DHT22;32840;52.516;13.294;2022-12-18T00:38:25;-2.40;99.90
47090;DHT22;32840;52.516;13.294;2022-12-18T00:41:11;-2.40;99.90
47090;DHT22;32840;52.516;13.294;2022-12-18T00:43:56;-2.40;99.90
47090;DHT22;32840;52.516;13.294;2022-12-18T00:46:43;-2.50;99.90
47090;DHT22;32840;52.516;13.294;2022-12-18T00:49:28;-2.50;99.90
47090;DHT22;32840;52.516;13.294;2022-12-18T00:52:13;-2.50;99.90
47090;DHT22;32840;52.516;13.294;2022-12-18T00:54:58;-2.60;99.90
47090;DHT22;32840;52.516;13.294;2022-12-18T00:57:43;-2.60;99.90
47090;DHT22;32840;52.516;13.294;2022-12-18T01:00:28;-2.60;99.90
47090;DHT22;32840;52.516;13.294;2022-12-18T01:03:13;-2.60;99.90
47090;DHT22;32840;52.516;13.294;2022-12-18T01:05:58;-2.60;99.90
47090;DHT22;32840;52.516;13.294;2022-12-18T01:08:44;-2.60;99.90
47090;DHT22;32840;52.516;13.294;2022-12-18T01:11:29;-2.50;99.90
47090;DHT22;32840;52.516;13.294;2022-12-18T01:14:14;-2.30;99.90
47090;DHT22;32840;52.516;13.294;2022-12-18T01:16:58;-2.30;99.90
47090;DHT22;32840;52.516;13.294;2022-12-18T01:19:43;-2.30;99.90
47090;DHT22;32840;52.516;13.294;2022-12-18T01:22:28;-2.30;99.90
47090;DHT22;32840;52.516;13.294;2022-12-18T01:25:13;-2.40;99.90
47090;DHT22;32840;52.516;13.294;2022-12-18T01:27:58;-2.60;99.90
47090;DHT22;32840;52.516;13.294;2022-12-18T01:30:43;-2.70;99.90
47090;DHT22;32840;52.516;13.294;2022-12-18T01:33:28;-2.80;99.90
47090;DHT22;32840;52.516;13.294;2022-12-18T01:36:24;-2.70;99.90
47090;DHT22;32840;52.516;13.294;2022-12-18T01:39:14;-2.80;99.90
47090;DHT22;32840;52.516;13.294;2022-12-18T01:42:00;-2.70;99.90
47090;DHT22;32840;52.516;13.294;2022-12-18T01:48:06;-2.50;99.90
47090;DHT22;32840;52.516;13.294;2022-12-18T01:50:52;-2.40;99.90
47090;DHT22;32840;52.516;13.294;2022-12-18T01:53:39;-2.40;99.90
47090;DHT22;32840;52.516;13.294;2022-12-18T01:56:24;-2.50;99.90
47090;DHT22;32840;52.516;13.294;2022-12-18T01:59:10;-2.50;99.90
47090;DHT22;32840;52.516;13.294;2022-12-18T02:01:56;-2.50;99.90
47090;DHT22;32840;52.516;13.294;2022-12-18T02:04:41;-2.40;99.90
47090;DHT22;32840;52.516;13.294;2022-12-18T02:13:55;-2.60;99.90
47090;DHT22;32840;52.516;13.294;2022-12-18T02:16:52;-2.50;99.90
47090;DHT22;32840;52.516;13.294;2022-12-18T02:23:09;-2.70;99.90
47090;DHT22;32840;52.516;13.294;2022-12-18T02:26:22;-2.80;99.90
47090;DHT22;32840;52.516;13.294;2022-12-18T02:29:15;-2.80;99.90
47090;DHT22;32840;52.516;13.294;2022-12-18T02:32:02;-2.60;99.90
47090;DHT22;32840;52.516;13.294;2022-12-18T02:34:52;-2.70;99.90
47090;DHT22;32840;52.516;13.294;2022-12-18T02:37:39;-2.60;99.90
47090;DHT22;32840;52.516;13.294;2022-12-18T02:40:27;-2.50;99.90
47090;DHT22;32840;52.516;13.294;2022-12-18T02:43:15;-2.50;99.90
47090;DHT22;32840;52.516;13.294;2022-12-18T02:46:25;-2.50;99.90
47090;DHT22;32840;52.516;13.294;2022-12-18T02:49:36;-2.70;99.90
47090;DHT22;32840;52.516;13.294;2022-12-18T02:56:15;-2.80;99.90
47090;DHT22;32840;52.516;13.294;2022-12-18T02:59:12;-2.90;99.90
47090;DHT22;32840;52.516;13.294;2022-12-18T03:02:16;-2.90;99.90
47090;DHT22;32840;52.516;13.294;2022-12-18T03:05:25;-2.80;99.90
47090;DHT22;32840;52.516;13.294;2022-12-18T03:08:23;-2.70;99.90
47090;DHT22;32840;52.516;13.294;2022-12-18T03:11:13;-2.70;99.90
47090;DHT22;32840;52.516;13.294;2022-12-18T03:13:59;-2.70;99.90
47090;DHT22;32840;52.516;13.294;2022-12-18T03:16:49;-2.80;99.90
47090;DHT22;32840;52.516;13.294;2022-12-18T03:19:43;-2.90;99.90
47090;DHT22;32840;52.516;13.294;2022-12-18T03:22:32;-3.00;99.90
47090;DHT22;32840;52.516;13.294;2022-12-18T03:25:19;-3.00;99.90
47090;DHT22;32840;52.516;13.294;2022-12-18T03:28:05;-3.10;99.90
47090;DHT22;32840;52.516;13.294;2022-12-18T03:30:56;-3.00;99.90
47090;DHT22;32840;52.516;13.294;2022-12-18T03:33:51;-3.00;99.90
47090;DHT22;32840;52.516;13.294;2022-12-18T03:36:35;-2.90;99.90
47090;DHT22;32840;52.516;13.294;2022-12-18T03:39:20;-2.90;99.90
47090;DHT22;32840;52.516;13.294;2022-12-18T03:42:51;-2.90;99.90
47090;DHT22;32840;52.516;13.294;2022-12-18T03:45:43;-3.10;99.90
47090;DHT22;32840;52.516;13.294;2022-12-18T03:48:41;-3.10;99.90
47090;DHT22;32840;52.516;13.294;2022-12-18T03:54:32;-3.20;99.90
47090;DHT22;32840;52.516;13.294;2022-12-18T03:57:24;-3.10;99.90
47090;DHT22;32840;52.516;13.294;2022-12-18T04:00:13;-3.20;99.90
47090;DHT22;32840;52.516;13.294;2022-12-18T04:03:00;-3.20;99.90
47090;DHT22;32840;52.516;13.294;2022-12-18T04:05:49;-3.10;99.90
47090;DHT22;32840;52.516;13.294;2022-12-18T04:08:35;-3.00;99.90
47090;DHT22;32840;52.516;13.294;2022-12-18T04:11:20;-3.10;99.90
47090;DHT22;32840;52.516;13.294;2022-12-18T04:14:05;-3.00;99.90
47090;DHT22;32840;52.516;13.294;2022-12-18T04:16:50;-3.00;99.90
47090;DHT22;32840;52.516;13.294;2022-12-18T04:19:34;-3.00;99.90
47090;DHT22;32840;52.516;13.294;2022-12-18T04:22:19;-3.20;99.90
47090;DHT22;32840;52.516;13.294;2022-12-18T04:25:04;-3.30;99.90
47090;DHT22;32840;52.516;13.294;2022-12-18T04:27:49;-3.20;99.90
47090;DHT22;32840;52.516;13.294;2022-12-18T04:30:36;-3.00;99.90
47090;DHT22;32840;52.516;13.294;2022-12-18T04:33:21;-3.00;99.90
47090;DHT22;32840;52.516;13.294;2022-12-18T04:36:06;-3.00;99.90
47090;DHT22;32840;52.516;13.294;2022-12-18T04:38:51;-3.10;99.90
47090;DHT22;32840;52.516;13.294;2022-12-18T04:41:36;-3.10;99.90
47090;DHT22;32840;52.516;13.294;2022-12-18T04:44:21;-3.10;99.90
47090;DHT22;32840;52.516;13.294;2022-12-18T04:47:06;-3.20;99.90
47090;DHT22;32840;52.516;13.294;2022-12-18T04:49:52;-3.20;99.90
47090;DHT22;32840;52.516;13.294;2022-12-18T04:52:37;-3.20;99.90
47090;DHT22;32840;52.516;13.294;2022-12-18T04:55:22;-3.20;99.90
47090;DHT22;32840;52.516;13.294;2022-12-18T04:58:09;-3.30;99.90
47090;DHT22;32840;52.516;13.294;2022-12-18T05:00:54;-3.40;99.90
47090;DHT22;32840;52.516;13.294;2022-12-18T05:03:39;-3.30;99.90
47090;DHT22;32840;52.516;13.294;2022-12-18T05:06:24;-3.40;99.90
47090;DHT22;32840;52.516;13.294;2022-12-18T05:09:09;-3.40;99.90
47090;DHT22;32840;52.516;13.294;2022-12-18T05:11:54;-3.40;99.90
47090;DHT22;32840;52.516;13.294;2022-12-18T05:14:38;-3.40;99.90
47090;DHT22;32840;52.516;13.294;2022-12-18T05:17:23;-3.30;99.90
47090;DHT22;32840;52.516;13.294;2022-12-18T05:20:10;-3.30;99.90
47090;DHT22;32840;52.516;13.294;2022-12-18T05:22:55;-3.30;99.90
47090;DHT22;32840;52.516;13.294;2022-12-18T05:25:41;-3.30;99.90
47090;DHT22;32840;52.516;13.294;2022-12-18T05:28:29;-3.30;99.90
47090;DHT22;32840;52.516;13.294;2022-12-18T05:31:14;-3.20;99.90
47090;DHT22;32840;52.516;13.294;2022-12-18T05:33:59;-3.10;99.90
47090;DHT22;32840;52.516;13.294;2022-12-18T05:36:44;-3.00;99.90
47090;DHT22;32840;52.516;13.294;2022-12-18T05:39:29;-3.00;99.90
47090;DHT22;32840;52.516;13.294;2022-12-18T05:42:13;-3.10;99.90
47090;DHT22;32840;52.516;13.294;2022-12-18T05:44:58;-3.10;99.90
47090;DHT22;32840;52.516;13.294;2022-12-18T05:47:43;-3.10;99.90
47090;DHT22;32840;52.516;13.294;2022-12-18T05:50:28;-3.20;99.90
47090;DHT22;32840;52.516;13.294;2022-12-18T05:53:14;-3.30;99.90
47090;DHT22;32840;52.516;13.294;2022-12-18T05:56:04;-3.20;99.90
47090;DHT22;32840;52.516;13.294;2022-12-18T05:58:54;-3.20;99.90
47090;DHT22;32840;52.516;13.294;2022-12-18T06:01:38;-3.30;99.90
47090;DHT22;32840;52.516;13.294;2022-12-18T06:04:23;-3.30;99.90
47090;DHT22;32840;52.516;13.294;2022-12-18T06:07:08;-3.40;99.90
47090;DHT22;32840;52.516;13.294;2022-12-18T06:09:53;-3.40;99.90
47090;DHT22;32840;52.516;13.294;2022-12-18T06:12:38;-3.50;99.90
47090;DHT22;32840;52.516;13.294;2022-12-18T06:15:23;-3.40;99.90
47090;DHT22;32840;52.516;13.294;2022-12-18T06:18:08;-3.50;99.90
47090;DHT22;32840;52.516;13.294;2022-12-18T06:20:59;-3.50;99.90
47090;DHT22;32840;52.516;13.294;2022-12-18T06:23:44;-3.40;99.90
47090;DHT22;32840;52.516;13.294;2022-12-18T06:26:29;-3.50;99.90
47090;DHT22;32840;52.516;13.294;2022-12-18T06:29:14;-3.50;99.90
47090;DHT22;32840;52.516;13.294;2022-12-18T06:31:59;-3.50;99.90
47090;DHT22;32840;52.516;13.294;2022-12-18T06:34:44;-3.50;99.90
47090;DHT22;32840;52.516;13.294;2022-12-18T06:37:30;-3.50;99.90
47090;DHT22;32840;52.516;13.294;2022-12-18T06:40:15;-3.70;99.90
47090;DHT22;32840;52.516;13.294;2022-12-18T06:43:00;-3.60;99.90
47090;DHT22;32840;52.516;13.294;2022-12-18T06:45:45;-3.60;99.90
47090;DHT22;32840;52.516;13.294;2022-12-18T06:48:34;-3.60;99.90
47090;DHT22;32840;52.516;13.294;2022-12-18T06:51:23;-3.50;99.90
47090;DHT22;32840;52.516;13.294;2022-12-18T06:54:08;-3.50;99.90
47090;DHT22;32840;52.516;13.294;2022-12-18T06:56:53;-3.50;99.90
47090;DHT22;32840;52.516;13.294;2022-12-18T06:59:40;-3.50;99.90
47090;DHT22;32840;52.516;13.294;2022-12-18T07:02:29;-3.50;99.90
47090;DHT22;32840;52.516;13.294;2022-12-18T07:05:17;-3.40;99.90
47090;DHT22;32840;52.516;13.294;2022-12-18T07:08:02;-3.40;99.90
47090;DHT22;32840;52.516;13.294;2022-12-18T07:10:47;-3.50;99.90
47090;DHT22;32840;52.516;13.294;2022-12-18T07:13:33;-3.50;99.90
47090;DHT22;32840;52.516;13.294;2022-12-18T07:16:20;-3.50;99.90
47090;DHT22;32840;52.516;13.294;2022-12-18T07:19:05;-3.50;99.90
47090;DHT22;32840;52.516;13.294;2022-12-18T07:21:51;-3.50;99.90
47090;DHT22;32840;52.516;13.294;2022-12-18T07:24:36;-3.50;99.90
47090;DHT22;32840;52.516;13.294;2022-12-18T07:27:22;-3.50;99.90
47090;DHT22;32840;52.516;13.294;2022-12-18T07:30:08;-3.40;99.90
47090;DHT22;32840;52.516;13.294;2022-12-18T07:32:53;-3.30;99.90
47090;DHT22;32840;52.516;13.294;2022-12-18T07:35:38;-3.30;99.90
47090;DHT22;32840;52.516;13.294;2022-12-18T07:38:23;-3.30;99.90
47090;DHT22;32840;52.516;13.294;2022-12-18T07:41:10;-3.20;99.90
47090;DHT22;32840;52.516;13.294;2022-12-18T07:43:55;-3.30;99.90
47090;DHT22;32840;52.516;13.294;2022-12-18T07:46:40;-3.30;99.90
47090;DHT22;32840;52.516;13.294;2022-12-18T07:49:25;-3.40;99.90
47090;DHT22;32840;52.516;13.294;2022-12-18T07:52:10;-3.30;99.90
47090;DHT22;32840;52.516;13.294;2022-12-18T07:54:56;-3.30;99.90
47090;DHT22;32840;52.516;13.294;2022-12-18T07:57:41;-3.30;99.90
47090;DHT22;32840;52.516;13.294;2022-12-18T08:00:26;-3.40;99.90
47090;DHT22;32840;52.516;13.294;2022-12-18T08:03:12;-3.30;99.90
47090;DHT22;32840;52.516;13.294;2022-12-18T08:06:05;-3.30;99.90
47090;DHT22;32840;52.516;13.294;2022-12-18T08:08:52;-3.20;99.90
47090;DHT22;32840;52.516;13.294;2022-12-18T08:11:38;-3.20;99.90
47090;DHT22;32840;52.516;13.294;2022-12-18T08:14:23;-3.20;99.90
47090;DHT22;32840;52.516;13.294;2022-12-18T08:17:09;-3.20;99.90
47090;DHT22;32840;52.516;13.294;2022-12-18T08:19:54;-3.20;99.90
47090;DHT22;32840;52.516;13.294;2022-12-18T08:22:39;-3.20;99.90
47090;DHT22;32840;52.516;13.294;2022-12-18T08:25:24;-3.10;99.90
47090;DHT22;32840;52.516;13.294;2022-12-18T08:28:10;-3.00;99.90
47090;DHT22;32840;52.516;13.294;2022-12-18T08:30:55;-2.90;99.90
47090;DHT22;32840;52.516;13.294;2022-12-18T08:33:42;-2.80;99.90
47090;DHT22;32840;52.516;13.294;2022-12-18T08:36:27;-2.90;99.90
47090;DHT22;32840;52.516;13.294;2022-12-18T08:39:12;-2.90;99.90
47090;DHT22;32840;52.516;13.294;2022-12-18T08:42:06;-2.90;99.90
47090;DHT22;32840;52.516;13.294;2022-12-18T08:45:23;-2.90;99.90
47090;DHT22;32840;52.516;13.294;2022-12-18T08:48:09;-2.80;99.90
47090;DHT22;32840;52.516;13.294;2022-12-18T08:50:56;-2.80;99.90
47090;DHT22;32840;52.516;13.294;2022-12-18T08:53:41;-2.70;99.90
47090;DHT22;32840;52.516;13.294;2022-12-18T08:56:27;-2.60;99.90
47090;DHT22;32840;52.516;13.294;2022-12-18T08:59:12;-2.60;99.90
47090;DHT22;32840;52.516;13.294;2022-12-18T09:02:03;-2.50;99.90
47090;DHT22;32840;52.516;13.294;2022-12-18T09:04:48;-2.50;99.90
47090;DHT22;32840;52.516;13.294;2022-12-18T09:07:33;-2.50;99.90
47090;DHT22;32840;52.516;13.294;2022-12-18T09:10:18;-2.40;99.90
47090;DHT22;32840;52.516;13.294;2022-12-18T09:13:03;-2.50;99.90
47090;DHT22;32840;52.516;13.294;2022-12-18T09:15:53;-2.60;99.90
47090;DHT22;32840;52.516;13.294;2022-12-18T09:18:41;-2.60;99.90
47090;DHT22;32840;52.516;13.294;2022-12-18T09:21:28;-2.60;99.90
47090;DHT22;32840;52.516;13.294;2022-12-18T09:24:14;-2.60;99.90
47090;DHT22;32840;52.516;13.294;2022-12-18T09:27:00;-2.50;99.90
47090;DHT22;32840;52.516;13.294;2022-12-18T09:29:45;-2.50;99.90
47090;DHT22;32840;52.516;13.294;2022-12-18T09:32:33;-2.60;99.90
47090;DHT22;32840;52.516;13.294;2022-12-18T09:35:18;-2.40;99.90
47090;DHT22;32840;52.516;13.294;2022-12-18T09:38:03;-2.30;99.90
47090;DHT22;32840;52.516;13.294;2022-12-18T09:40:50;-2.30;99.90
47090;DHT22;32840;52.516;13.294;2022-12-18T09:43:47;-2.20;99.90
47090;DHT22;32840;52.516;13.294;2022-12-18T09:46:38;-2.20;99.90
47090;DHT22;32840;52.516;13.294;2022-12-18T09:49:25;-2.30;99.90
47090;DHT22;32840;52.516;13.294;2022-12-18T09:52:34;-2.30;99.90
47090;DHT22;32840;52.516;13.294;2022-12-18T09:55:41;-2.20;99.90
47090;DHT22;32840;52.516;13.294;2022-12-18T10:01:23;-2.50;99.90
47090;DHT22;32840;52.516;13.294;2022-12-18T10:04:08;-2.60;99.90
47090;DHT22;32840;52.516;13.294;2022-12-18T10:06:55;-2.50;99.90
47090;DHT22;32840;52.516;13.294;2022-12-18T10:10:01;-2.50;99.90
47090;DHT22;32840;52.516;13.294;2022-12-18T10:13:08;-2.50;99.90
47090;DHT22;32840;52.516;13.294;2022-12-18T10:22:31;-2.40;99.90
47090;DHT22;32840;52.516;13.294;2022-12-18T10:25:53;-2.30;99.90
47090;DHT22;32840;52.516;13.294;2022-12-18T10:28:41;-2.10;99.90
47090;DHT22;32840;52.516;13.294;2022-12-18T10:31:26;-1.90;99.90
47090;DHT22;32840;52.516;13.294;2022-12-18T10:34:14;-1.90;99.90
47090;DHT22;32840;52.516;13.294;2022-12-18T10:37:01;-1.80;99.90
47090;DHT22;32840;52.516;13.294;2022-12-18T10:40:15;-1.80;99.90
47090;DHT22;32840;52.516;13.294;2022-12-18T10:43:09;-1.80;99.90
47090;DHT22;32840;52.516;13.294;2022-12-18T10:48:56;-1.90;99.90
47090;DHT22;32840;52.516;13.294;2022-12-18T10:51:42;-1.80;99.90
47090;DHT22;32840;52.516;13.294;2022-12-18T10:54:28;-1.80;99.90
47090;DHT22;32840;52.516;13.294;2022-12-18T11:00:30;-2.00;99.90
47090;DHT22;32840;52.516;13.294;2022-12-18T11:03:34;-2.00;99.90
47090;DHT22;32840;52.516;13.294;2022-12-18T11:06:23;-1.90;99.90
47090;DHT22;32840;52.516;13.294;2022-12-18T11:09:22;-2.00;99.90
47090;DHT22;32840;52.516;13.294;2022-12-18T11:12:17;-2.00;99.90
47090;DHT22;32840;52.516;13.294;2022-12-18T11:15:02;-1.90;99.90
47090;DHT22;32840;52.516;13.294;2022-12-18T11:17:51;-1.80;99.90
47090;DHT22;32840;52.516;13.294;2022-12-18T11:20:36;-1.60;99.90
47090;DHT22;32840;52.516;13.294;2022-12-18T11:23:22;-1.60;99.90
47090;DHT22;32840;52.516;13.294;2022-12-18T11:26:10;-1.60;99.90
47090;DHT22;32840;52.516;13.294;2022-12-18T11:29:09;-1.60;99.90
47090;DHT22;32840;52.516;13.294;2022-12-18T11:32:29;-1.50;99.90
47090;DHT22;32840;52.516;13.294;2022-12-18T11:38:40;-1.50;99.90
47090;DHT22;32840;52.516;13.294;2022-12-18T11:41:29;-1.40;99.90
47090;DHT22;32840;52.516;13.294;2022-12-18T11:44:58;-1.50;99.90
47090;DHT22;32840;52.516;13.294;2022-12-18T11:48:06;-1.50;99.90
47090;DHT22;32840;52.516;13.294;2022-12-18T11:50:59;-1.60;99.90
47090;DHT22;32840;52.516;13.294;2022-12-18T11:53:45;-1.60;99.90
47090;DHT22;32840;52.516;13.294;2022-12-18T11:56:35;-1.70;99.90
47090;DHT22;32840;52.516;13.294;2022-12-18T12:08:52;-1.40;99.90
47090;DHT22;32840;52.516;13.294;2022-12-18T12:15:17;-1.20;99.90
47090;DHT22;32840;52.516;13.294;2022-12-18T12:18:21;-1.20;99.90
47090;DHT22;32840;52.516;13.294;2022-12-18T12:27:16;-1.40;99.90
47090;DHT22;32840;52.516;13.294;2022-12-18T12:30:30;-1.50;99.90
47090;DHT22;32840;52.516;13.294;2022-12-18T12:36:38;-1.40;99.90
47090;DHT22;32840;52.516;13.294;2022-12-18T12:39:35;-1.40;99.90
47090;DHT22;32840;52.516;13.294;2022-12-18T12:42:35;-1.40;99.90
47090;DHT22;32840;52.516;13.294;2022-12-18T12:45:55;-1.40;99.90
47090;DHT22;32840;52.516;13.294;2022-12-18T12:51:32;-1.40;99.90
47090;DHT22;32840;52.516;13.294;2022-12-18T12:54:23;-1.40;99.90
47090;DHT22;32840;52.516;13.294;2022-12-18T12:57:22;-1.50;99.90
47090;DHT22;32840;52.516;13.294;2022-12-18T13:00:15;-1.60;99.90
47090;DHT22;32840;52.516;13.294;2022-12-18T13:03:12;-1.60;99.90
47090;DHT22;32840;52.516;13.294;2022-12-18T13:06:04;-1.50;99.90
47090;DHT22;32840;52.516;13.294;2022-12-18T13:08:56;-1.50;99.90
47090;DHT22;32840;52.516;13.294;2022-12-18T13:11:46;-1.40;99.90
47090;DHT22;32840;52.516;13.294;2022-12-18T13:14:50;-1.40;99.90
47090;DHT22;32840;52.516;13.294;2022-12-18T13:17:34;-1.40;99.90
47090;DHT22;32840;52.516;13.294;2022-12-18T13:20:19;-1.30;99.90
47090;DHT22;32840;52.516;13.294;2022-12-18T13:28:53;-1.40;99.90
47090;DHT22;32840;52.516;13.294;2022-12-18T13:34:25;-1.60;99.90
47090;DHT22;32840;52.516;13.294;2022-12-18T13:37:36;-1.60;99.90
47090;DHT22;32840;52.516;13.294;2022-12-18T13:43:45;-1.60;99.90
47090;DHT22;32840;52.516;13.294;2022-12-18T13:46:47;-1.60;99.90
47090;DHT22;32840;52.516;13.294;2022-12-18T13:49:38;-1.60;99.90
47090;DHT22;32840;52.516;13.294;2022-12-18T13:52:28;-1.70;99.90
47090;DHT22;32840;52.516;13.294;2022-12-18T13:55:19;-1.80;99.90
47090;DHT22;32840;52.516;13.294;2022-12-18T13:58:05;-1.70;99.90
47090;DHT22;32840;52.516;13.294;2022-12-18T14:00:50;-1.70;99.90
47090;DHT22;32840;52.516;13.294;2022-12-18T14:03:35;-1.80;99.90
47090;DHT22;32840;52.516;13.294;2022-12-18T14:06:20;-1.70;99.90
47090;DHT22;32840;52.516;13.294;2022-12-18T14:09:05;-1.80;99.90
47090;DHT22;32840;52.516;13.294;2022-12-18T14:11:50;-1.70;99.90
47090;DHT22;32840;52.516;13.294;2022-12-18T14:14:36;-1.70;99.90
47090;DHT22;32840;52.516;13.294;2022-12-18T14:17:22;-1.60;99.90
47090;DHT22;32840;52.516;13.294;2022-12-18T14:20:15;-1.70;99.90
47090;DHT22;32840;52.516;13.294;2022-12-18T14:23:01;-1.70;99.90
47090;DHT22;32840;52.516;13.294;2022-12-18T14:25:46;-1.80;99.90
47090;DHT22;32840;52.516;13.294;2022-12-18T14:28:32;-1.70;99.90
47090;DHT22;32840;52.516;13.294;2022-12-18T14:31:28;-1.60;99.90
47090;DHT22;32840;52.516;13.294;2022-12-18T14:34:17;-1.60;99.90
47090;DHT22;32840;52.516;13.294;2022-12-18T14:37:01;-1.70;99.90
47090;DHT22;32840;52.516;13.294;2022-12-18T14:39:57;-1.70;99.90
47090;DHT22;32840;52.516;13.294;2022-12-18T14:42:42;-1.70;99.90
47090;DHT22;32840;52.516;13.294;2022-12-18T14:45:38;-1.90;99.90
47090;DHT22;32840;52.516;13.294;2022-12-18T14:48:42;-1.80;99.90
47090;DHT22;32840;52.516;13.294;2022-12-18T14:51:30;-1.80;99.90
47090;DHT22;32840;52.516;13.294;2022-12-18T14:54:18;-1.80;99.90
47090;DHT22;32840;52.516;13.294;2022-12-18T14:57:21;-1.70;99.90
47090;DHT22;32840;52.516;13.294;2022-12-18T15:00:15;-1.60;99.90
47090;DHT22;32840;52.516;13.294;2022-12-18T15:03:00;-1.70;99.90
47090;DHT22;32840;52.516;13.294;2022-12-18T15:05:46;-1.80;99.90
47090;DHT22;32840;52.516;13.294;2022-12-18T15:08:36;-1.80;99.90
47090;DHT22;32840;52.516;13.294;2022-12-18T15:11:36;-1.80;99.90
47090;DHT22;32840;52.516;13.294;2022-12-18T15:17:23;-1.60;99.90
47090;DHT22;32840;52.516;13.294;2022-12-18T15:20:09;-1.70;99.90
47090;DHT22;32840;52.516;13.294;2022-12-18T15:22:55;-1.80;99.90
47090;DHT22;32840;52.516;13.294;2022-12-18T15:25:40;-1.80;99.90
47090;DHT22;32840;52.516;13.294;2022-12-18T15:28:36;-1.80;99.90
47090;DHT22;32840;52.516;13.294;2022-12-18T15:31:32;-1.90;99.90
47090;DHT22;32840;52.516;13.294;2022-12-18T15:34:20;-1.90;99.90
47090;DHT22;32840;52.516;13.294;2022-12-18T15:37:07;-2.00;99.90
47090;DHT22;32840;52.516;13.294;2022-12-18T15:39:52;-2.00;99.90
47090;DHT22;32840;52.516;13.294;2022-12-18T15:42:37;-1.90;99.90
47090;DHT22;32840;52.516;13.294;2022-12-18T15:45:40;-2.00;99.90
47090;DHT22;32840;52.516;13.294;2022-12-18T15:48:25;-2.10;99.90
47090;DHT22;32840;52.516;13.294;2022-12-18T15:51:33;-2.10;99.90
47090;DHT22;32840;52.516;13.294;2022-12-18T15:54:19;-2.10;99.90
47090;DHT22;32840;52.516;13.294;2022-12-18T15:57:24;-2.10;99.90
47090;DHT22;32840;52.516;13.294;2022-12-18T16:00:12;-2.10;99.90
47090;DHT22;32840;52.516;13.294;2022-12-18T16:02:56;-2.10;99.90
47090;DHT22;32840;52.516;13.294;2022-12-18T16:05:43;-2.00;99.90
47090;DHT22;32840;52.516;13.294;2022-12-18T16:08:31;-2.10;99.90
47090;DHT22;32840;52.516;13.294;2022-12-18T16:11:24;-2.10;99.90
47090;DHT22;32840;52.516;13.294;2022-12-18T16:14:31;-2.10;99.90
47090;DHT22;32840;52.516;13.294;2022-12-18T16:17:16;-2.10;99.90
47090;DHT22;32840;52.516;13.294;2022-12-18T16:20:02;-2.10;99.90
47090;DHT22;32840;52.516;13.294;2022-12-18T16:22:47;-2.20;99.90
47090;DHT22;32840;52.516;13.294;2022-12-18T16:25:32;-2.20;99.90
47090;DHT22;32840;52.516;13.294;2022-12-18T16:28:18;-2.10;99.90
47090;DHT22;32840;52.516;13.294;2022-12-18T16:31:03;-2.10;99.90
47090;DHT22;32840;52.516;13.294;2022-12-18T16:33:49;-2.10;99.90
47090;DHT22;32840;52.516;13.294;2022-12-18T16:36:34;-2.00;99.90
47090;DHT22;32840;52.516;13.294;2022-12-18T16:39:19;-2.10;99.90
47090;DHT22;32840;52.516;13.294;2022-12-18T16:42:08;-2.10;99.90
47090;DHT22;32840;52.516;13.294;2022-12-18T16:44:54;-2.00;99.90
47090;DHT22;32840;52.516;13.294;2022-12-18T16:47:38;-2.10;99.90
47090;DHT22;32840;52.516;13.294;2022-12-18T16:50:23;-2.10;99.90
47090;DHT22;32840;52.516;13.294;2022-12-18T16:53:08;-2.10;99.90
47090;DHT22;32840;52.516;13.294;2022-12-18T16:55:54;-2.20;99.90
47090;DHT22;32840;52.516;13.294;2022-12-18T16:58:40;-2.20;99.90
47090;DHT22;32840;52.516;13.294;2022-12-18T17:01:26;-2.20;99.90
47090;DHT22;32840;52.516;13.294;2022-12-18T17:04:14;-2.20;99.90
47090;DHT22;32840;52.516;13.294;2022-12-18T17:06:59;-2.30;99.90
47090;DHT22;32840;52.516;13.294;2022-12-18T17:09:43;-2.30;99.90
47090;DHT22;32840;52.516;13.294;2022-12-18T17:12:30;-2.30;99.90
47090;DHT22;32840;52.516;13.294;2022-12-18T17:15:16;-2.30;99.90
47090;DHT22;32840;52.516;13.294;2022-12-18T17:18:02;-2.30;99.90
47090;DHT22;32840;52.516;13.294;2022-12-18T17:20:47;-2.40;99.90
47090;DHT22;32840;52.516;13.294;2022-12-18T17:23:32;-2.40;99.90
47090;DHT22;32840;52.516;13.294;2022-12-18T17:26:17;-2.40;99.90
47090;DHT22;32840;52.516;13.294;2022-12-18T17:29:02;-2.40;99.90
47090;DHT22;32840;52.516;13.294;2022-12-18T17:31:47;-2.40;99.90
47090;DHT22;32840;52.516;13.294;2022-12-18T17:34:32;-2.50;99.90
47090;DHT22;32840;52.516;13.294;2022-12-18T17:37:17;-2.40;99.90
47090;DHT22;32840;52.516;13.294;2022-12-18T17:40:03;-2.40;99.90
47090;DHT22;32840;52.516;13.294;2022-12-18T17:42:47;-2.30;99.90
47090;DHT22;32840;52.516;13.294;2022-12-18T17:45:35;-2.40;99.90
47090;DHT22;32840;52.516;13.294;2022-12-18T17:48:20;-2.40;99.90
47090;DHT22;32840;52.516;13.294;2022-12-18T17:51:06;-2.40;99.90
47090;DHT22;32840;52.516;13.294;2022-12-18T17:53:51;-2.40;99.90
47090;DHT22;32840;52.516;13.294;2022-12-18T17:56:37;-2.40;99.90
47090;DHT22;32840;52.516;13.294;2022-12-18T17:59:22;-2.40;99.90
47090;DHT22;32840;52.516;13.294;2022-12-18T18:02:09;-2.40;99.90
47090;DHT22;32840;52.516;13.294;2022-12-18T18:04:54;-2.40;99.90
47090;DHT22;32840;52.516;13.294;2022-12-18T18:07:39;-2.50;99.90
47090;DHT22;32840;52.516;13.294;2022-12-18T18:10:24;-2.60;99.90
47090;DHT22;32840;52.516;13.294;2022-12-18T18:13:18;-2.60;99.90
47090;DHT22;32840;52.516;13.294;2022-12-18T18:16:22;-2.60;99.90
47090;DHT22;32840;52.516;13.294;2022-12-18T18:19:10;-2.60;99.90
47090;DHT22;32840;52.516;13.294;2022-12-18T18:21:56;-2.60;99.90
47090;DHT22;32840;52.516;13.294;2022-12-18T18:24:41;-2.60;99.90
47090;DHT22;32840;52.516;13.294;2022-12-18T18:27:28;-2.60;99.90
47090;DHT22;32840;52.516;13.294;2022-12-18T18:30:14;-2.60;99.90
47090;DHT22;32840;52.516;13.294;2022-12-18T18:32:59;-2.50;99.90
47090;DHT22;32840;52.516;13.294;2022-12-18T18:35:44;-2.60;99.90
47090;DHT22;32840;52.516;13.294;2022-12-18T18:38:30;-2.50;99.90
47090;DHT22;32840;52.516;13.294;2022-12-18T18:41:16;-2.60;99.90
47090;DHT22;32840;52.516;13.294;2022-12-18T18:44:01;-2.50;99.90
47090;DHT22;32840;52.516;13.294;2022-12-18T18:46:47;-2.50;99.90
47090;DHT22;32840;52.516;13.294;2022-12-18T18:49:32;-2.50;99.90